Sawyerville, Alabama
Current Conditions -  °F | °C
As of 9:55 AM on Thursday 27 Nov 2014 (Local Time) from KDYA Reporting Station
Clear Clear  
Wind Chill: 41°   Ceiling: Unl
Heat Index: 47°   Visibility: 10mi
Dew Point: 30°   Wind: 15mph
Humidity: 51%   Direction: 350°N
Pressure: 30.44"   Gusts: NA
Location:  32.75°N, 87.73°W
Report Text: KDYA 271555Z AUTO 35013KT 10SM CLR 08/M01 A3044 RMK AO2 T00831012
Loading
Personal Weather Stations






























Interactive Weather Map New forecast layout! Learn more

10-Day Weather Forecast

Advertisements
Track Severe Weather on mobile